createdAt,value
2022-09-16T00:00:58.544Z,5.70
2022-09-16T00:03:26.477Z,6.22
2022-09-16T00:05:55.718Z,7.38
2022-09-16T00:08:23.947Z,6.55
2022-09-16T00:10:52.221Z,6.88
2022-09-16T00:13:20.465Z,6.18
2022-09-16T00:15:51.762Z,5.78
2022-09-16T00:18:20.568Z,6.82
2022-09-16T00:20:49.892Z,6.72
2022-09-16T00:23:20.198Z,6.72
2022-09-16T00:25:52.502Z,6.05
2022-09-16T00:28:21.618Z,6.35
2022-09-16T00:30:49.778Z,5.78
2022-09-16T00:33:18.169Z,5.97
2022-09-16T00:35:46.139Z,6.85
2022-09-16T00:38:14.791Z,6.32
2022-09-16T00:40:47.308Z,6.38
2022-09-16T00:43:16.318Z,6.20
2022-09-16T00:45:47.748Z,5.97
2022-09-16T00:48:21.353Z,5.70
2022-09-16T00:50:53.237Z,6.47
2022-09-16T00:53:23.896Z,6.82
2022-09-16T00:55:55.803Z,7.07
2022-09-16T00:58:29.043Z,6.93
2022-09-16T01:00:57.328Z,5.82
2022-09-16T01:03:27.094Z,6.03
2022-09-16T01:05:55.151Z,6.90
2022-09-16T01:08:23.027Z,6.10
2022-09-16T01:10:50.900Z,6.88
2022-09-16T01:13:20.196Z,7.30
2022-09-16T01:15:59.752Z,6.80
2022-09-16T01:18:35.055Z,6.43
2022-09-16T01:21:24.548Z,7.03
2022-09-16T01:24:18.316Z,6.88
2022-09-16T01:27:12.455Z,6.90
2022-09-16T01:30:22.516Z,7.28
2022-09-16T01:33:04.713Z,8.05
2022-09-16T01:35:55.338Z,7.35
2022-09-16T01:38:34.619Z,7.30
2022-09-16T01:41:10.675Z,7.90
2022-09-16T01:43:51.746Z,7.00
2022-09-16T01:46:25.395Z,7.30
2022-09-16T01:49:00.542Z,7.93
2022-09-16T01:51:34.690Z,8.35
2022-09-16T01:54:07.980Z,7.82
2022-09-16T01:56:42.743Z,8.45
2022-09-16T01:59:12.259Z,7.63
2022-09-16T02:01:47.041Z,7.72
2022-09-16T02:04:21.615Z,8.43
2022-09-16T02:06:52.502Z,8.35
2022-09-16T02:09:25.507Z,7.80
2022-09-16T02:11:58.517Z,7.57
2022-09-16T02:14:29.907Z,7.70
2022-09-16T02:17:02.231Z,8.00
2022-09-16T02:19:37.310Z,8.20
2022-09-16T02:22:09.584Z,7.65
2022-09-16T02:24:41.233Z,7.30
2022-09-16T02:27:14.328Z,7.90
2022-09-16T02:29:48.469Z,8.35
2022-09-16T02:32:17.153Z,8.40
2022-09-16T02:34:49.942Z,8.55
2022-09-16T02:37:22.533Z,7.95
2022-09-16T02:39:56.604Z,7.93
2022-09-16T02:42:25.193Z,7.93
2022-09-16T02:44:53.211Z,7.85
2022-09-16T02:47:30.139Z,7.63
2022-09-16T02:50:02.765Z,8.98
2022-09-16T02:52:37.337Z,8.93
2022-09-16T02:55:14.698Z,7.97
2022-09-16T02:57:42.808Z,8.33
2022-09-16T03:00:11.598Z,7.22
2022-09-16T03:02:39.812Z,8.55
2022-09-16T03:05:10.441Z,7.68
2022-09-16T03:07:40.787Z,8.13
2022-09-16T03:10:11.261Z,8.60
2022-09-16T03:12:56.251Z,8.52
2022-09-16T03:15:40.846Z,8.68
2022-09-16T03:18:23.769Z,8.05
2022-09-16T03:21:01.216Z,8.43
2022-09-16T03:23:44.540Z,7.63
2022-09-16T03:26:21.671Z,7.07
2022-09-16T03:28:56.447Z,7.57
2022-09-16T03:31:29.962Z,7.65
2022-09-16T03:34:04.965Z,7.60
2022-09-16T03:36:38.346Z,7.25
2022-09-16T03:39:06.757Z,6.90
2022-09-16T03:41:35.810Z,7.07
2022-09-16T03:44:04.499Z,6.93
2022-09-16T03:46:32.837Z,7.00
2022-09-16T03:49:00.862Z,7.32
2022-09-16T03:51:28.773Z,7.53
2022-09-16T03:53:57.954Z,6.85
2022-09-16T03:56:26.437Z,6.70
2022-09-16T03:58:55.106Z,6.72
2022-09-16T04:01:22.990Z,6.47
2022-09-16T04:03:52.258Z,6.78
2022-09-16T04:06:20.221Z,6.55
2022-09-16T04:08:50.511Z,6.47
2022-09-16T04:11:19.732Z,6.45
2022-09-16T04:13:47.537Z,6.57
2022-09-16T04:16:21.070Z,7.03
2022-09-16T04:18:49.847Z,7.35
2022-09-16T04:21:18.013Z,7.25
2022-09-16T04:23:45.882Z,6.15
2022-09-16T04:26:13.720Z,6.15
2022-09-16T04:28:42.898Z,6.72
2022-09-16T04:31:13.257Z,6.68
2022-09-16T04:33:41.748Z,6.82
2022-09-16T04:36:12.131Z,7.72
2022-09-16T04:38:40.625Z,6.20
2022-09-16T04:41:11.504Z,6.93
2022-09-16T04:43:40.052Z,6.93
2022-09-16T04:46:09.552Z,6.85
2022-09-16T04:48:38.118Z,6.63
2022-09-16T04:51:08.768Z,6.85
2022-09-16T04:53:36.886Z,7.40
2022-09-16T04:56:06.666Z,6.85
2022-09-16T04:58:34.807Z,7.05
2022-09-16T05:01:12.639Z,8.48
2022-09-16T05:03:41.272Z,6.93
2022-09-16T05:06:11.903Z,7.20
2022-09-16T05:08:40.478Z,7.05
2022-09-16T05:11:10.295Z,7.38
2022-09-16T05:13:39.025Z,8.00
2022-09-16T05:16:11.610Z,7.90
2022-09-16T05:18:41.198Z,7.68
2022-09-16T05:21:11.060Z,7.85
2022-09-16T05:23:45.843Z,7.07
2022-09-16T05:26:16.570Z,5.80
2022-09-16T05:28:44.465Z,5.50
2022-09-16T05:31:15.865Z,4.93
2022-09-16T05:33:46.031Z,5.07
2022-09-16T05:36:16.424Z,5.05
2022-09-16T05:39:11.172Z,4.88
2022-09-16T05:41:32.494Z,5.32
2022-09-16T05:44:00.710Z,5.00
2022-09-16T05:46:30.248Z,5.63
2022-09-16T05:48:58.214Z,5.13
2022-09-16T05:51:26.598Z,5.35
2022-09-16T05:53:55.675Z,5.70
2022-09-16T05:56:25.710Z,6.22
2022-09-16T05:58:54.352Z,5.78
2022-09-16T06:01:23.958Z,6.38
2022-09-16T06:03:55.005Z,5.93
2022-09-16T06:06:26.085Z,6.10
2022-09-16T06:08:55.386Z,6.13
2022-09-16T06:11:24.536Z,5.80
2022-09-16T06:13:56.419Z,5.40
2022-09-16T06:16:25.769Z,5.50
2022-09-16T06:18:55.765Z,4.72
2022-09-16T06:21:24.182Z,5.57
2022-09-16T06:23:53.228Z,5.80
2022-09-16T06:26:22.767Z,5.70
2022-09-16T06:28:51.595Z,5.50
2022-09-16T06:31:21.052Z,7.22
2022-09-16T06:33:50.271Z,7.18
2022-09-16T06:36:20.905Z,5.95
2022-09-16T06:38:49.153Z,5.75
2022-09-16T06:41:18.920Z,5.90
2022-09-16T06:43:47.260Z,6.43
2022-09-16T06:46:16.936Z,6.22
2022-09-16T06:48:46.412Z,5.85
2022-09-16T06:51:18.300Z,6.00
2022-09-16T06:53:48.071Z,5.50
2022-09-16T06:56:17.699Z,5.28
2022-09-16T06:58:48.312Z,4.93
2022-09-16T07:01:18.075Z,5.82
2022-09-16T07:03:48.021Z,6.45
2022-09-16T07:06:17.330Z,5.82
2022-09-16T07:08:47.146Z,4.68
2022-09-16T07:11:16.599Z,6.93
2022-09-16T07:13:45.221Z,6.03
2022-09-16T07:16:14.872Z,6.20
2022-09-16T07:18:43.639Z,5.80
2022-09-16T07:21:13.800Z,6.78
2022-09-16T07:23:42.599Z,6.07
2022-09-16T07:26:13.835Z,5.18
2022-09-16T07:28:43.280Z,5.88
2022-09-16T07:31:14.226Z,6.57
2022-09-16T07:33:43.943Z,5.45
2022-09-16T07:36:13.862Z,6.47
2022-09-16T07:38:42.243Z,5.60
2022-09-16T07:41:13.258Z,7.75
2022-09-16T07:43:42.516Z,6.82
2022-09-16T07:46:12.522Z,7.15
2022-09-16T07:48:40.939Z,7.30
2022-09-16T07:51:10.562Z,7.93
2022-09-16T07:53:38.872Z,8.10
2022-09-16T07:56:09.346Z,8.38
2022-09-16T07:58:39.046Z,8.75
2022-09-16T08:01:07.822Z,8.45
2022-09-16T08:03:37.183Z,7.78
2022-09-16T08:06:07.238Z,8.50
2022-09-16T08:08:35.641Z,7.47
2022-09-16T08:11:04.228Z,8.52
2022-09-16T08:13:33.508Z,8.60
2022-09-16T08:16:05.856Z,8.50
2022-09-16T08:18:34.523Z,9.68
2022-09-16T08:21:07.693Z,7.65
2022-09-16T08:23:36.139Z,8.95
2022-09-16T08:26:05.597Z,9.55
2022-09-16T08:28:45.119Z,7.38
2022-09-16T08:31:23.260Z,6.97
2022-09-16T08:33:51.102Z,7.82
2022-09-16T08:36:21.176Z,8.95
2022-09-16T08:38:51.386Z,7.13
2022-09-16T08:41:29.983Z,7.88
2022-09-16T08:44:12.914Z,8.60
2022-09-16T08:46:52.437Z,9.20
2022-09-16T08:49:28.596Z,8.18
2022-09-16T08:51:58.077Z,8.48
2022-09-16T08:54:29.507Z,8.57
2022-09-16T08:57:01.855Z,8.85
2022-09-16T08:59:34.926Z,8.63
2022-09-16T09:02:22.417Z,9.38
2022-09-16T09:04:50.764Z,8.55
2022-09-16T09:07:25.830Z,8.05
2022-09-16T09:10:03.978Z,8.07
2022-09-16T09:12:39.619Z,8.27
2022-09-16T09:15:28.102Z,8.02
2022-09-16T09:18:15.698Z,8.57
2022-09-16T09:20:50.996Z,6.22
2022-09-16T09:23:35.003Z,6.60
2022-09-16T09:26:09.735Z,6.65
2022-09-16T09:28:54.370Z,6.40
2022-09-16T09:31:30.755Z,5.65
2022-09-16T09:34:06.571Z,5.00
2022-09-16T09:36:49.266Z,3.78
2022-09-16T09:39:28.939Z,4.78
2022-09-16T09:42:03.926Z,5.80
2022-09-16T09:44:43.032Z,4.25
2022-09-16T09:47:14.634Z,4.20
2022-09-16T09:49:47.491Z,3.90
2022-09-16T09:52:20.006Z,3.78
2022-09-16T09:54:50.990Z,3.95
2022-09-16T09:57:28.134Z,3.20
2022-09-16T10:00:04.159Z,3.63
2022-09-16T10:02:32.024Z,4.65
2022-09-16T10:05:02.114Z,3.88
2022-09-16T10:07:30.217Z,4.47
2022-09-16T10:10:01.845Z,4.00
2022-09-16T10:12:31.859Z,3.60
2022-09-16T10:15:00.657Z,4.18
2022-09-16T10:17:32.700Z,3.88
2022-09-16T10:20:05.670Z,4.15
2022-09-16T10:22:35.521Z,3.78
2022-09-16T10:25:06.739Z,4.13
2022-09-16T10:27:36.328Z,4.53
2022-09-16T10:30:13.731Z,5.47
2022-09-16T10:32:48.583Z,3.43
2022-09-16T10:35:22.576Z,3.50
2022-09-16T10:37:56.344Z,3.67
2022-09-16T10:40:25.650Z,3.47
2022-09-16T10:42:55.434Z,3.30
2022-09-16T10:45:29.687Z,2.47
2022-09-16T10:48:02.223Z,2.95
2022-09-16T10:50:34.267Z,3.42
2022-09-16T10:53:02.123Z,3.78
2022-09-16T10:55:35.254Z,3.28
2022-09-16T10:58:09.467Z,3.60
2022-09-16T11:00:46.431Z,3.05
2022-09-16T11:04:02.151Z,3.40
2022-09-16T11:06:48.225Z,3.05
2022-09-16T11:09:22.717Z,3.00
2022-09-16T11:12:07.691Z,3.33
2022-09-16T11:14:47.231Z,3.47
2022-09-16T11:17:30.331Z,2.75
2022-09-16T11:20:21.406Z,3.10
2022-09-16T11:22:59.160Z,2.75
2022-09-16T11:25:39.319Z,2.72
2022-09-16T11:28:24.728Z,2.30
2022-09-16T11:31:00.605Z,2.78
2022-09-16T11:33:36.029Z,2.67
2022-09-16T11:36:18.210Z,2.08
2022-09-16T11:39:00.910Z,2.42
2022-09-16T11:41:33.620Z,2.55
2022-09-16T11:44:34.364Z,2.50
2022-09-16T11:47:27.104Z,2.25
2022-09-16T11:50:08.160Z,1.90
2022-09-16T11:52:51.085Z,2.00
2022-09-16T11:55:33.871Z,2.08
2022-09-16T11:58:11.466Z,2.22
2022-09-16T12:00:41.115Z,2.00
2022-09-16T12:03:19.362Z,2.30
2022-09-16T12:05:53.639Z,1.67
2022-09-16T12:08:29.003Z,2.28
2022-09-16T12:11:01.557Z,1.48
2022-09-16T12:13:35.951Z,1.40
2022-09-16T12:16:07.208Z,1.70
2022-09-16T12:18:42.848Z,2.03
2022-09-16T12:21:16.477Z,1.27
2022-09-16T12:23:48.897Z,2.03
2022-09-16T12:26:20.748Z,2.28
2022-09-16T12:28:52.829Z,2.05
2022-09-16T12:31:26.773Z,1.88
2022-09-16T12:33:58.773Z,2.50
2022-09-16T12:36:30.386Z,2.22
2022-09-16T12:38:59.415Z,2.85
2022-09-16T12:41:49.689Z,2.58
2022-09-16T12:44:43.813Z,2.10
2022-09-16T12:47:35.112Z,2.17
2022-09-16T12:50:20.642Z,2.22
2022-09-16T12:53:20.662Z,2.00
2022-09-16T12:56:02.996Z,2.92
2022-09-16T12:58:58.121Z,1.85
2022-09-16T13:01:28.607Z,2.17
2022-09-16T13:03:59.594Z,2.10
2022-09-16T13:06:30.520Z,2.25
2022-09-16T13:09:14.764Z,1.83
2022-09-16T13:14:34.892Z,1.75
2022-09-16T13:17:03.478Z,1.50
2022-09-16T13:19:41.073Z,1.67
2022-09-16T13:22:23.024Z,1.42
2022-09-16T13:24:55.782Z,1.23
2022-09-16T13:27:30.425Z,1.55
2022-09-16T13:30:27.920Z,1.13
2022-09-16T13:33:04.571Z,1.30
2022-09-16T13:35:41.693Z,1.27
2022-09-16T13:38:23.674Z,1.50
2022-09-16T13:40:56.751Z,1.63
2022-09-16T13:43:32.530Z,0.90
2022-09-16T13:46:10.602Z,1.30
2022-09-16T13:48:46.880Z,1.63
2022-09-16T13:51:19.190Z,1.50
2022-09-16T13:53:49.343Z,1.30
2022-09-16T13:56:38.474Z,1.70
2022-09-16T13:59:26.918Z,1.85
2022-09-16T14:02:05.721Z,1.48
2022-09-16T14:04:52.559Z,1.60
2022-09-16T14:07:32.624Z,1.80
2022-09-16T14:10:04.442Z,1.63
2022-09-16T14:12:43.716Z,1.60
2022-09-16T14:15:12.625Z,1.80
2022-09-16T14:17:50.374Z,2.03
2022-09-16T14:20:21.959Z,2.13
2022-09-16T14:23:00.435Z,2.05
2022-09-16T14:25:31.080Z,1.80
2022-09-16T14:28:21.024Z,1.70
2022-09-16T14:30:54.855Z,1.70
2022-09-16T14:33:29.629Z,1.63
2022-09-16T14:35:58.223Z,1.67
2022-09-16T14:38:45.696Z,1.67
2022-09-16T14:41:22.806Z,2.40
2022-09-16T14:43:51.511Z,2.08
2022-09-16T14:46:19.547Z,1.80
2022-09-16T14:48:49.634Z,1.98
2022-09-16T14:51:23.075Z,1.73
2022-09-16T14:54:12.290Z,1.95
2022-09-16T14:56:40.955Z,1.52
2022-09-16T14:59:12.798Z,2.05
2022-09-16T15:01:42.363Z,2.20
2022-09-16T15:04:18.479Z,1.75
2022-09-16T15:06:52.776Z,2.67
2022-09-16T15:09:26.083Z,1.70
2022-09-16T15:11:58.096Z,1.77
2022-09-16T15:14:26.728Z,2.05
2022-09-16T15:16:58.459Z,1.85
2022-09-16T15:19:30.222Z,1.70
2022-09-16T15:21:58.562Z,1.40
2022-09-16T15:24:30.905Z,1.80
2022-09-16T15:27:00.148Z,1.38
2022-09-16T15:29:34.019Z,1.63
2022-09-16T15:32:17.906Z,1.83
2022-09-16T15:34:47.351Z,2.00
2022-09-16T15:37:32.907Z,1.92
2022-09-16T15:40:24.191Z,1.90
2022-09-16T15:43:04.124Z,1.83
2022-09-16T15:45:32.273Z,1.80
2022-09-16T15:48:03.517Z,1.90
2022-09-16T15:50:41.734Z,1.30
2022-09-16T15:55:43.809Z,1.77
2022-09-16T15:58:16.947Z,2.10
2022-09-16T16:01:02.620Z,1.52
2022-09-16T16:03:36.338Z,1.70
2022-09-16T16:06:05.959Z,2.78
2022-09-16T16:08:44.139Z,1.92
2022-09-16T16:13:40.729Z,1.63
2022-09-16T16:16:09.448Z,1.55
2022-09-16T16:18:39.152Z,2.05
2022-09-16T16:21:09.526Z,2.35
2022-09-16T16:23:38.343Z,2.00
2022-09-16T16:26:08.842Z,2.47
2022-09-16T16:28:38.364Z,1.67
2022-09-16T16:31:14.784Z,2.08
2022-09-16T16:33:44.908Z,1.65
2022-09-16T16:36:15.443Z,2.80
2022-09-16T16:38:43.634Z,1.65
2022-09-16T16:41:12.234Z,1.92
2022-09-16T16:43:40.472Z,1.67
2022-09-16T16:46:08.856Z,1.98
2022-09-16T16:48:37.077Z,1.52
2022-09-16T16:51:07.729Z,1.77
2022-09-16T16:53:37.456Z,1.30
2022-09-16T16:56:07.844Z,2.17
2022-09-16T16:58:37.971Z,1.83
2022-09-16T17:01:09.523Z,2.00
2022-09-16T17:03:37.452Z,1.50
2022-09-16T17:06:07.027Z,2.17
2022-09-16T17:08:36.361Z,2.28
2022-09-16T17:11:10.094Z,2.63
2022-09-16T17:13:38.763Z,3.70
2022-09-16T17:16:08.079Z,1.70
2022-09-16T17:18:37.196Z,2.08
2022-09-16T17:21:06.324Z,1.90
2022-09-16T17:23:34.507Z,1.83
2022-09-16T17:26:04.805Z,3.47
2022-09-16T17:28:32.961Z,1.92
2022-09-16T17:31:00.874Z,1.70
2022-09-16T17:33:28.834Z,1.60
2022-09-16T17:36:03.786Z,1.63
2022-09-16T17:38:32.142Z,2.22
2022-09-16T17:41:06.667Z,1.83
2022-09-16T17:43:35.485Z,1.98
2022-09-16T17:46:05.286Z,2.13
2022-09-16T17:48:33.399Z,1.58
2022-09-16T17:51:01.324Z,1.42
2022-09-16T17:53:29.162Z,1.75
2022-09-16T17:56:05.413Z,1.50
2022-09-16T17:58:33.454Z,1.50
2022-09-16T18:01:06.468Z,1.50
2022-09-16T18:03:34.515Z,1.40
2022-09-16T18:06:10.031Z,1.20
2022-09-16T18:08:38.641Z,1.10
2022-09-16T18:11:09.051Z,1.80
2022-09-16T18:13:37.081Z,1.70
2022-09-16T18:16:07.534Z,1.48
2022-09-16T18:18:36.595Z,1.80
2022-09-16T18:21:05.450Z,1.58
2022-09-16T18:23:33.570Z,1.52
2022-09-16T18:26:05.920Z,1.80
2022-09-16T18:28:58.123Z,1.42
2022-09-16T18:31:24.947Z,1.63
2022-09-16T18:33:53.753Z,1.85
2022-09-16T18:36:25.174Z,1.50
2022-09-16T18:38:54.580Z,1.85
2022-09-16T18:41:24.577Z,1.70
2022-09-16T18:43:55.642Z,1.75
2022-09-16T18:46:26.736Z,1.75
2022-09-16T18:48:57.420Z,1.40
2022-09-16T18:51:27.330Z,1.20
2022-09-16T18:53:57.826Z,1.30
2022-09-16T18:56:27.394Z,1.25
2022-09-16T18:59:21.557Z,1.10
2022-09-16T19:01:50.098Z,1.30
2022-09-16T19:04:20.627Z,1.98
2022-09-16T19:06:51.112Z,0.90
2022-09-16T19:09:20.690Z,1.30
2022-09-16T19:11:49.364Z,1.35
2022-09-16T19:14:19.034Z,1.10
2022-09-16T19:16:47.206Z,1.15
2022-09-16T19:19:16.576Z,1.15
2022-09-16T19:21:45.145Z,1.10
2022-09-16T19:24:15.377Z,1.40
2022-09-16T19:26:44.732Z,1.27
2022-09-16T19:29:14.130Z,1.33
2022-09-16T19:31:45.831Z,1.67
2022-09-16T19:34:14.067Z,1.27
2022-09-16T19:36:42.741Z,1.40
2022-09-16T19:39:12.932Z,1.20
2022-09-16T19:41:41.823Z,1.33
2022-09-16T19:44:12.552Z,1.00
2022-09-16T19:46:42.661Z,1.20
2022-09-16T19:49:16.065Z,1.55
2022-09-16T19:51:44.092Z,1.77
2022-09-16T19:54:11.954Z,1.70
2022-09-16T19:56:39.804Z,0.90
2022-09-16T19:59:07.747Z,1.08
2022-09-16T20:01:37.247Z,0.82
2022-09-16T20:04:07.209Z,0.95
2022-09-16T20:06:38.663Z,1.10
2022-09-16T20:09:09.266Z,0.95
2022-09-16T20:11:38.666Z,0.82
2022-09-16T20:14:09.536Z,1.00
2022-09-16T20:16:39.622Z,0.57
2022-09-16T20:19:12.455Z,0.80
2022-09-16T20:21:42.285Z,0.70
2022-09-16T20:24:15.467Z,0.88
2022-09-16T20:26:44.402Z,0.88
2022-09-16T20:29:12.335Z,0.85
2022-09-16T20:31:40.217Z,0.98
2022-09-16T20:34:08.073Z,0.88
2022-09-16T20:36:38.836Z,0.90
2022-09-16T20:39:10.371Z,1.05
2022-09-16T20:41:40.129Z,1.10
2022-09-16T20:44:08.148Z,1.40
2022-09-16T20:46:38.649Z,1.30
2022-09-16T20:49:10.476Z,1.00
2022-09-16T20:51:38.363Z,0.95
2022-09-16T20:54:09.581Z,0.90
2022-09-16T20:56:39.693Z,0.90
2022-09-16T20:59:08.800Z,0.70
2022-09-16T21:01:38.092Z,0.82
2022-09-16T21:04:07.184Z,0.85
2022-09-16T21:06:36.309Z,0.68
2022-09-16T21:09:07.005Z,0.63
2022-09-16T21:11:36.339Z,0.88
2022-09-16T21:14:06.711Z,0.70
2022-09-16T21:16:36.115Z,0.65
2022-09-16T21:19:09.053Z,0.77
2022-09-16T21:21:37.773Z,0.65
2022-09-16T21:24:07.156Z,0.65
2022-09-16T21:26:37.819Z,1.00
2022-09-16T21:29:08.805Z,0.88
2022-09-16T21:31:37.900Z,0.73
2022-09-16T21:34:06.777Z,0.80
2022-09-16T21:36:35.276Z,0.88
2022-09-16T21:39:03.296Z,0.90
2022-09-16T21:41:31.139Z,0.90
2022-09-16T21:44:00.351Z,0.75
2022-09-16T21:46:31.710Z,1.08
2022-09-16T21:49:02.081Z,0.98
2022-09-16T21:51:34.881Z,0.90
2022-09-16T21:54:03.007Z,0.88
2022-09-16T21:56:31.283Z,1.13
2022-09-16T21:59:00.847Z,0.90
2022-09-16T22:01:31.624Z,0.82
2022-09-16T22:04:02.148Z,0.68
2022-09-16T22:06:30.445Z,0.85
2022-09-16T22:09:00.792Z,1.02
2022-09-16T22:11:31.182Z,0.82
2022-09-16T22:14:01.501Z,0.80
2022-09-16T22:16:31.442Z,0.90
2022-09-16T22:19:00.558Z,0.95
2022-09-16T22:21:30.495Z,1.02
2022-09-16T22:23:59.515Z,0.65
2022-09-16T22:26:28.642Z,0.80
2022-09-16T22:28:57.323Z,0.90
2022-09-16T22:31:28.456Z,1.20
2022-09-16T22:34:00.215Z,0.80
2022-09-16T22:36:30.596Z,0.80
2022-09-16T22:39:00.896Z,0.90
2022-09-16T22:41:29.973Z,1.00
2022-09-16T22:43:58.777Z,0.60
2022-09-16T22:46:29.616Z,0.82
2022-09-16T22:48:59.027Z,0.75
2022-09-16T22:51:27.893Z,0.85
2022-09-16T22:53:56.291Z,0.93
2022-09-16T22:56:26.925Z,0.90
2022-09-16T22:58:56.245Z,1.00
2022-09-16T23:01:25.922Z,1.00
2022-09-16T23:03:58.161Z,1.10
2022-09-16T23:06:27.990Z,0.65
2022-09-16T23:08:55.886Z,1.10
2022-09-16T23:11:25.707Z,0.95
2022-09-16T23:13:54.898Z,1.13
2022-09-16T23:16:25.171Z,1.15
2022-09-16T23:18:53.424Z,1.13
2022-09-16T23:21:24.264Z,1.00
2022-09-16T23:23:55.228Z,1.30
2022-09-16T23:26:25.048Z,1.30
2022-09-16T23:28:54.370Z,0.82
2022-09-16T23:31:24.127Z,0.90
2022-09-16T23:33:52.299Z,0.98
2022-09-16T23:36:21.787Z,0.93
2022-09-16T23:38:49.649Z,0.80
2022-09-16T23:41:19.632Z,0.80
2022-09-16T23:43:48.486Z,1.10
2022-09-16T23:46:18.093Z,1.27
2022-09-16T23:48:46.211Z,1.13
2022-09-16T23:51:14.266Z,1.23
2022-09-16T23:53:43.550Z,1.00
2022-09-16T23:56:13.403Z,1.23
2022-09-16T23:58:42.021Z,1.58
